Terminal Aerodrome Forecast
Issued by NWS

Home | Current Version | Previous Version | Text Only | Print | Product List | Glossary On
Versions: 1 2 3 4 5 6 7 8 9 10 11 12 13 14 15 16 17 18 19 20 21 22 23 24
151
FTUS43 KLSX 050420 AAA
TAFUIN
TAF AMD
KUIN 050420Z 0504/0524 24005KT P6SM BKN015
     FM050500 24005KT P6SM SCT100
      TEMPO 0506/0509 3SM BR
     FM050900 20004KT 1 1/2SM BR SCT003
     FM051500 17008KT P6SM SCT250=

USA.gov is the U.S. government's official web portal to all federal, state and local government web resources and services.